This is the latest recevied weather packets stored in our database for station/object KC1BRV. If no packets are shown the sender has not sent any weather packets the latest 10 day(s).
| Time | Temp. | Humidity | Pressure | Rain* | Wind** | Luminosity | Snow |
|---|---|---|---|---|---|---|---|
| 1788562935 | 22.78° C | 76% | 1010.3 hPa | 0 mm | - | 7 W/m² | - |
| 1788562634 | 23.33° C | 74% | 1010.2 hPa | 0 mm | - | 9 W/m² | - |
| 1788562328 | 23.33° C | 74% | 1010.1 hPa | 0 mm | - | 11 W/m² | - |
| 1788562027 | 23.89° C | 74% | 1010.2 hPa | 0 mm | - | 13 W/m² | - |
| 1788561723 | 23.89° C | 72% | 1010.1 hPa | 0 mm | - | 14 W/m² | - |
| 1788561422 | 23.89° C | 71% | 1010.2 hPa | 0 mm | - | 16 W/m² | - |
| 1788561118 | 24.44° C | 71% | 1010.1 hPa | 0 mm | - | 21 W/m² | - |
| 1788560813 | 24.44° C | 70% | 1010 hPa | 0 mm | - | 25 W/m² | - |
| 1788560509 | 24.44° C | 69% | 1010.2 hPa | 0 mm | - | 31 W/m² | - |
| 1788560208 | 25° C | 69% | 1010.1 hPa | 0 mm | - | 35 W/m² | - |
| 1788559903 | 25° C | 71% | 1010.1 hPa | 0 mm | - | 38 W/m² | - |
| 1788559597 | 25° C | 70% | 1010 hPa | 0 mm | - | 42 W/m² | - |
| 1788559292 | 25° C | 68% | 1010 hPa | 0 mm | - | 40 W/m² | - |
| 1788558987 | 25° C | 67% | 1010 hPa | 0 mm | - | 36 W/m² | - |
| 1788558683 | 25° C | 66% | 1010 hPa | 0 mm | - | 34 W/m² | - |
| 1788558383 | 25.56° C | 64% | 1009.9 hPa | 0 mm | - | 28 W/m² | - |
| 1788558080 | 25.56° C | 62% | 1010 hPa | 0 mm | - | 30 W/m² | - |
| 1788557777 | 25.56° C | 64% | 1010.1 hPa | 0 mm | - | 33 W/m² | - |
| 1788557474 | 26.11° C | 61% | 1010.1 hPa | 0 mm | - | 42 W/m² | - |
| 1788557174 | 26.11° C | 65% | 1009.9 hPa | 0 mm | - | 66 W/m² | - |
| 1788556869 | 26.11° C | 62% | 1009.8 hPa | 0 mm | - | 62 W/m² | - |
| 1788556568 | 26.11° C | 61% | 1010.1 hPa | 0 mm | - | 55 W/m² | - |
| 1788556264 | 26.11° C | 62% | 1010 hPa | 0 mm | - | 49 W/m² | - |
| 1788555963 | 26.11° C | 60% | 1009.9 hPa | 0 mm | - | 41 W/m² | - |
| 1788555659 | 26.11° C | 59% | 1009.9 hPa | 0 mm | - | 41 W/m² | - |
* Rain latest hour (hover to see other rain measurements)
** Current wind speed in m/s (hover to see current wind gust speed)